Easton, WA (98925)

6:45 PM PDT on April 26, 2017 (GMT -0700)
Cle Elum Wa - GiddyLodge | | Change Station
Active Advisory: Wind Advisory

Elev 2117 ft 47.21 °N, 121.11 °W | Updated 5 minutes ago

Mostly Cloudy
Mostly Cloudy
43.0 °F
Feels Like 43 °F
N
3.0
Wind Variable Wind from WNW
Gusts 17.0 mph

Today
High -- | Low -- °F
--% Chance of Precip.
Yesterday
High -- | Low -- °F
Precip. -- in
Pressure 29.79 in
Visibility 10.0 miles
Clouds Few 500 ft
Scattered Clouds 1100 ft
Mostly Cloudy 1700 ft
Windchill 43 °F
Dew Point 38 °F
Humidity 82%
Rainfall 0.15 in
Snow Depth Not available.
5:56 AM 8:09 PM
New Moon, 0% visible
SPECI KSMP 270120Z AUTO 25009G23KT 210V310 10SM FEW005 SCT011 BKN017 01/01 A2979 RMK AO2 SNE00 P0000 T00110011 $
Pressure 29.79 in
Visibility 10.0 miles
Clouds Few 500 ft
Scattered Clouds 1100 ft
Mostly Cloudy 1700 ft
Windchill 43 °F
Dew Point 38 °F
Humidity 82%
Rainfall 0.15 in
Snow Depth Not available.
5:56 AM 8:09 PM
New Moon, 0% visible
SPECI KSMP 270120Z AUTO 25009G23KT 210V310 10SM FEW005 SCT011 BKN017 01/01 A2979 RMK AO2 SNE00 P0000 T00110011 $

Get Your Daily Forecast Email!

Thanks for signing up!

Be on the lookout for a verification email in your inbox.

You'll start receiving severe weather alerts in your inbox..

×

10-Day Weather Forecast

Almanac

Astronomy

Apr. 26, 2017 Rise Set
Actual Time
Civil Twilight
Nautical Twilight
Astronomical Twilight
Moon
Length of Visible Light
Length of Day
Tomorrow will be .
, % of the Moon is Illuminated

Today's Extremes

State Highs State Lows

Community

WunderPhotos

WunderBlog® & News

Nearby

Air Quality

  Air Quality AQ Index Pollutant
Not available.

Snow Depth

Station Depth Elevation

Earthquake Activity

City Distance Mag. Time & Date
Minimum magnitude displayed is 2.5.

Coastal Water Temperatures

Place Temperature

Stations

Nearby Weather Stations

Station Location Temp. Windchill Dew Point Humidity Wind Precip. Elev Updated Type
                   

Watches & Warnings

Wind Advisory
Issued: 10:52 AM PDT Apr. 26, 2017 – National Weather Service

... Wind Advisory remains in effect until 9 PM PDT Thursday...

* winds... northwest 30 to 35 mph with gusts up to 50 mph.

* Timing... winds will increase through the day and remain very
windy through Thursday evening. Winds will be strongest late
today through Thursday afternoon and evening.

* Impacts... strong winds may blow down limbs, trees, and power
lines. Scattered power outages are expected.

Precautionary/preparedness actions...

A Wind Advisory means that winds of 35 mph with higher gusts are
expected. Winds this strong can make driving difficult...
especially for high profile vehicles. Use extra caution.